sensor_id;sensor_type;location;lat;lon;timestamp;P1;durP1;ratioP1;P2;durP2;ratioP2
19179;SDS011;9722;48.754;8.868;2023-03-01T00:00:34;13.70;;;10.47;;
19179;SDS011;9722;48.754;8.868;2023-03-01T00:03:55;11.17;;;9.93;;
19179;SDS011;9722;48.754;8.868;2023-03-01T00:07:15;11.93;;;10.60;;
19179;SDS011;9722;48.754;8.868;2023-03-01T00:10:36;13.20;;;10.77;;
19179;SDS011;9722;48.754;8.868;2023-03-01T00:13:57;11.67;;;10.10;;
19179;SDS011;9722;48.754;8.868;2023-03-01T00:17:20;13.47;;;10.83;;
19179;SDS011;9722;48.754;8.868;2023-03-01T00:20:41;17.23;;;12.50;;
19179;SDS011;9722;48.754;8.868;2023-03-01T00:24:02;21.90;;;13.30;;
19179;SDS011;9722;48.754;8.868;2023-03-01T00:27:23;16.23;;;11.50;;
19179;SDS011;9722;48.754;8.868;2023-03-01T00:30:43;24.63;;;15.90;;
19179;SDS011;9722;48.754;8.868;2023-03-01T00:34:04;23.67;;;14.63;;
19179;SDS011;9722;48.754;8.868;2023-03-01T00:37:25;16.63;;;11.50;;
19179;SDS011;9722;48.754;8.868;2023-03-01T00:40:45;16.67;;;10.90;;
19179;SDS011;9722;48.754;8.868;2023-03-01T00:44:06;15.30;;;11.73;;
19179;SDS011;9722;48.754;8.868;2023-03-01T00:47:29;16.13;;;11.03;;
19179;SDS011;9722;48.754;8.868;2023-03-01T00:50:49;16.23;;;10.97;;
19179;SDS011;9722;48.754;8.868;2023-03-01T00:54:10;12.13;;;9.93;;
19179;SDS011;9722;48.754;8.868;2023-03-01T00:57:30;14.37;;;10.37;;
19179;SDS011;9722;48.754;8.868;2023-03-01T01:00:51;16.63;;;10.30;;
19179;SDS011;9722;48.754;8.868;2023-03-01T01:04:12;13.67;;;10.17;;
19179;SDS011;9722;48.754;8.868;2023-03-01T01:07:33;13.00;;;9.87;;
19179;SDS011;9722;48.754;8.868;2023-03-01T01:10:54;11.67;;;10.00;;
19179;SDS011;9722;48.754;8.868;2023-03-01T01:14:15;12.37;;;10.03;;
19179;SDS011;9722;48.754;8.868;2023-03-01T01:17:36;12.80;;;10.40;;
19179;SDS011;9722;48.754;8.868;2023-03-01T01:20:57;11.63;;;9.97;;
19179;SDS011;9722;48.754;8.868;2023-03-01T01:24:18;12.30;;;9.60;;
19179;SDS011;9722;48.754;8.868;2023-03-01T01:27:38;12.97;;;9.60;;
19179;SDS011;9722;48.754;8.868;2023-03-01T01:30:59;12.40;;;9.83;;
19179;SDS011;9722;48.754;8.868;2023-03-01T01:34:20;12.23;;;9.33;;
19179;SDS011;9722;48.754;8.868;2023-03-01T01:37:41;13.80;;;10.10;;
19179;SDS011;9722;48.754;8.868;2023-03-01T01:41:02;10.80;;;9.07;;
19179;SDS011;9722;48.754;8.868;2023-03-01T01:44:23;12.73;;;9.37;;
19179;SDS011;9722;48.754;8.868;2023-03-01T01:47:46;11.13;;;9.53;;
19179;SDS011;9722;48.754;8.868;2023-03-01T01:51:13;10.73;;;9.63;;
19179;SDS011;9722;48.754;8.868;2023-03-01T01:54:57;14.23;;;10.13;;
19179;SDS011;9722;48.754;8.868;2023-03-01T01:58:21;10.17;;;9.10;;
19179;SDS011;9722;48.754;8.868;2023-03-01T02:01:42;13.23;;;9.57;;
19179;SDS011;9722;48.754;8.868;2023-03-01T02:09:12;11.73;;;8.57;;
19179;SDS011;9722;48.754;8.868;2023-03-01T02:12:35;13.13;;;9.37;;
19179;SDS011;9722;48.754;8.868;2023-03-01T02:15:57;12.80;;;10.13;;
19179;SDS011;9722;48.754;8.868;2023-03-01T02:19:31;12.80;;;10.00;;
19179;SDS011;9722;48.754;8.868;2023-03-01T02:22:54;12.17;;;9.50;;
19179;SDS011;9722;48.754;8.868;2023-03-01T02:26:27;9.73;;;8.73;;
19179;SDS011;9722;48.754;8.868;2023-03-01T02:29:56;10.07;;;8.63;;
19179;SDS011;9722;48.754;8.868;2023-03-01T02:33:17;13.00;;;9.13;;
19179;SDS011;9722;48.754;8.868;2023-03-01T02:36:39;12.00;;;8.90;;
19179;SDS011;9722;48.754;8.868;2023-03-01T02:40:03;10.90;;;9.57;;
19179;SDS011;9722;48.754;8.868;2023-03-01T02:43:31;12.97;;;9.67;;
19179;SDS011;9722;48.754;8.868;2023-03-01T02:46:54;11.37;;;9.67;;
19179;SDS011;9722;48.754;8.868;2023-03-01T02:50:22;10.00;;;8.83;;
19179;SDS011;9722;48.754;8.868;2023-03-01T02:53:49;11.00;;;9.23;;
19179;SDS011;9722;48.754;8.868;2023-03-01T02:57:13;12.63;;;9.63;;
19179;SDS011;9722;48.754;8.868;2023-03-01T03:00:36;9.13;;;8.20;;
19179;SDS011;9722;48.754;8.868;2023-03-01T03:04:07;11.40;;;9.47;;
19179;SDS011;9722;48.754;8.868;2023-03-01T03:07:29;10.73;;;9.53;;
19179;SDS011;9722;48.754;8.868;2023-03-01T03:10:50;10.53;;;9.27;;
19179;SDS011;9722;48.754;8.868;2023-03-01T03:14:11;10.13;;;9.10;;
19179;SDS011;9722;48.754;8.868;2023-03-01T03:17:38;11.77;;;9.53;;
19179;SDS011;9722;48.754;8.868;2023-03-01T03:21:00;10.10;;;9.03;;
19179;SDS011;9722;48.754;8.868;2023-03-01T03:24:20;10.97;;;8.77;;
19179;SDS011;9722;48.754;8.868;2023-03-01T03:27:42;12.60;;;9.13;;
19179;SDS011;9722;48.754;8.868;2023-03-01T03:31:05;9.97;;;8.77;;
19179;SDS011;9722;48.754;8.868;2023-03-01T03:34:26;9.33;;;8.33;;
19179;SDS011;9722;48.754;8.868;2023-03-01T03:37:47;11.53;;;9.10;;
19179;SDS011;9722;48.754;8.868;2023-03-01T03:41:23;11.10;;;8.97;;
19179;SDS011;9722;48.754;8.868;2023-03-01T03:44:43;10.80;;;9.53;;
19179;SDS011;9722;48.754;8.868;2023-03-01T03:48:05;11.10;;;9.20;;
19179;SDS011;9722;48.754;8.868;2023-03-01T03:51:27;11.03;;;9.37;;
19179;SDS011;9722;48.754;8.868;2023-03-01T03:54:47;11.30;;;10.17;;
19179;SDS011;9722;48.754;8.868;2023-03-01T03:58:08;12.10;;;9.70;;
19179;SDS011;9722;48.754;8.868;2023-03-01T04:01:29;12.43;;;9.23;;
19179;SDS011;9722;48.754;8.868;2023-03-01T04:04:49;11.47;;;8.87;;
19179;SDS011;9722;48.754;8.868;2023-03-01T04:08:10;11.50;;;10.30;;
19179;SDS011;9722;48.754;8.868;2023-03-01T04:11:31;13.30;;;10.23;;
19179;SDS011;9722;48.754;8.868;2023-03-01T04:14:54;10.30;;;9.20;;
19179;SDS011;9722;48.754;8.868;2023-03-01T04:18:15;11.40;;;9.33;;
19179;SDS011;9722;48.754;8.868;2023-03-01T04:21:37;11.30;;;10.17;;
19179;SDS011;9722;48.754;8.868;2023-03-01T04:24:58;11.53;;;10.33;;
19179;SDS011;9722;48.754;8.868;2023-03-01T04:31:47;11.80;;;10.00;;
19179;SDS011;9722;48.754;8.868;2023-03-01T04:35:09;11.20;;;10.00;;
19179;SDS011;9722;48.754;8.868;2023-03-01T04:38:29;13.20;;;9.23;;
19179;SDS011;9722;48.754;8.868;2023-03-01T04:41:50;12.00;;;9.80;;
19179;SDS011;9722;48.754;8.868;2023-03-01T04:45:10;11.77;;;9.53;;
19179;SDS011;9722;48.754;8.868;2023-03-01T04:48:33;11.77;;;10.10;;
19179;SDS011;9722;48.754;8.868;2023-03-01T04:51:55;11.83;;;10.10;;
19179;SDS011;9722;48.754;8.868;2023-03-01T04:55:18;12.20;;;10.80;;
19179;SDS011;9722;48.754;8.868;2023-03-01T04:58:39;12.83;;;10.67;;
19179;SDS011;9722;48.754;8.868;2023-03-01T05:01:59;11.13;;;9.27;;
19179;SDS011;9722;48.754;8.868;2023-03-01T05:05:21;11.87;;;9.97;;
19179;SDS011;9722;48.754;8.868;2023-03-01T05:08:46;10.77;;;9.43;;
19179;SDS011;9722;48.754;8.868;2023-03-01T05:12:07;11.63;;;10.40;;
19179;SDS011;9722;48.754;8.868;2023-03-01T05:15:28;14.97;;;13.43;;
19179;SDS011;9722;48.754;8.868;2023-03-01T05:18:50;13.07;;;10.90;;
19179;SDS011;9722;48.754;8.868;2023-03-01T05:22:11;10.53;;;9.30;;
19179;SDS011;9722;48.754;8.868;2023-03-01T05:25:32;11.33;;;10.13;;
19179;SDS011;9722;48.754;8.868;2023-03-01T05:28:53;11.60;;;9.93;;
19179;SDS011;9722;48.754;8.868;2023-03-01T05:32:18;11.60;;;10.40;;
19179;SDS011;9722;48.754;8.868;2023-03-01T05:35:39;11.80;;;10.30;;
19179;SDS011;9722;48.754;8.868;2023-03-01T05:39:01;14.80;;;10.77;;
19179;SDS011;9722;48.754;8.868;2023-03-01T05:42:22;13.67;;;11.23;;
19179;SDS011;9722;48.754;8.868;2023-03-01T05:45:43;15.33;;;10.83;;
19179;SDS011;9722;48.754;8.868;2023-03-01T05:49:04;12.20;;;10.20;;
19179;SDS011;9722;48.754;8.868;2023-03-01T05:52:25;13.43;;;10.27;;
19179;SDS011;9722;48.754;8.868;2023-03-01T05:55:45;13.13;;;11.37;;
19179;SDS011;9722;48.754;8.868;2023-03-01T05:59:07;17.13;;;11.17;;
19179;SDS011;9722;48.754;8.868;2023-03-01T06:02:27;11.40;;;10.30;;
19179;SDS011;9722;48.754;8.868;2023-03-01T06:05:49;13.27;;;10.63;;
19179;SDS011;9722;48.754;8.868;2023-03-01T06:09:09;13.77;;;10.77;;
19179;SDS011;9722;48.754;8.868;2023-03-01T06:12:33;11.67;;;10.10;;
19179;SDS011;9722;48.754;8.868;2023-03-01T06:15:55;12.43;;;11.27;;
19179;SDS011;9722;48.754;8.868;2023-03-01T06:19:16;11.80;;;10.60;;
19179;SDS011;9722;48.754;8.868;2023-03-01T06:22:36;12.33;;;10.83;;
19179;SDS011;9722;48.754;8.868;2023-03-01T06:25:57;13.27;;;10.93;;
19179;SDS011;9722;48.754;8.868;2023-03-01T06:29:17;13.23;;;11.93;;
19179;SDS011;9722;48.754;8.868;2023-03-01T06:32:38;13.50;;;10.80;;
19179;SDS011;9722;48.754;8.868;2023-03-01T06:36:01;18.20;;;10.87;;
19179;SDS011;9722;48.754;8.868;2023-03-01T06:39:22;12.43;;;11.17;;
19179;SDS011;9722;48.754;8.868;2023-03-01T06:42:44;13.37;;;11.00;;
19179;SDS011;9722;48.754;8.868;2023-03-01T06:46:11;16.23;;;11.73;;
19179;SDS011;9722;48.754;8.868;2023-03-01T06:49:31;12.20;;;10.93;;
19179;SDS011;9722;48.754;8.868;2023-03-01T06:52:55;13.57;;;10.80;;
19179;SDS011;9722;48.754;8.868;2023-03-01T06:56:16;13.63;;;10.37;;
19179;SDS011;9722;48.754;8.868;2023-03-01T06:59:36;14.33;;;11.37;;
19179;SDS011;9722;48.754;8.868;2023-03-01T07:03:00;12.17;;;10.87;;
19179;SDS011;9722;48.754;8.868;2023-03-01T07:06:22;12.30;;;10.87;;
19179;SDS011;9722;48.754;8.868;2023-03-01T07:09:44;14.30;;;11.87;;
19179;SDS011;9722;48.754;8.868;2023-03-01T07:13:05;16.63;;;12.80;;
19179;SDS011;9722;48.754;8.868;2023-03-01T07:16:26;13.20;;;11.77;;
19179;SDS011;9722;48.754;8.868;2023-03-01T07:19:47;13.27;;;11.37;;
19179;SDS011;9722;48.754;8.868;2023-03-01T07:23:08;12.97;;;11.60;;
19179;SDS011;9722;48.754;8.868;2023-03-01T07:26:28;14.10;;;12.33;;
19179;SDS011;9722;48.754;8.868;2023-03-01T07:29:48;12.93;;;11.60;;
19179;SDS011;9722;48.754;8.868;2023-03-01T07:33:09;12.90;;;11.13;;
19179;SDS011;9722;48.754;8.868;2023-03-01T07:36:30;12.47;;;11.07;;
19179;SDS011;9722;48.754;8.868;2023-03-01T07:39:51;12.73;;;11.30;;
19179;SDS011;9722;48.754;8.868;2023-03-01T07:43:11;11.73;;;10.57;;
19179;SDS011;9722;48.754;8.868;2023-03-01T07:46:32;12.23;;;11.03;;
19179;SDS011;9722;48.754;8.868;2023-03-01T07:49:52;12.57;;;11.30;;
19179;SDS011;9722;48.754;8.868;2023-03-01T07:53:13;13.43;;;11.87;;
19179;SDS011;9722;48.754;8.868;2023-03-01T07:56:33;12.00;;;10.90;;
19179;SDS011;9722;48.754;8.868;2023-03-01T07:59:55;13.60;;;11.17;;
19179;SDS011;9722;48.754;8.868;2023-03-01T08:03:15;13.40;;;11.53;;
19179;SDS011;9722;48.754;8.868;2023-03-01T08:06:35;12.70;;;11.57;;
19179;SDS011;9722;48.754;8.868;2023-03-01T08:09:57;12.17;;;11.13;;
19179;SDS011;9722;48.754;8.868;2023-03-01T08:13:17;13.27;;;11.87;;
19179;SDS011;9722;48.754;8.868;2023-03-01T08:16:42;12.13;;;11.03;;
19179;SDS011;9722;48.754;8.868;2023-03-01T08:20:03;13.57;;;11.30;;
19179;SDS011;9722;48.754;8.868;2023-03-01T08:23:26;12.70;;;11.50;;
19179;SDS011;9722;48.754;8.868;2023-03-01T08:26:46;13.77;;;12.57;;
19179;SDS011;9722;48.754;8.868;2023-03-01T08:30:07;13.40;;;12.20;;
19179;SDS011;9722;48.754;8.868;2023-03-01T08:33:28;13.10;;;11.97;;
19179;SDS011;9722;48.754;8.868;2023-03-01T08:36:49;14.40;;;12.93;;
19179;SDS011;9722;48.754;8.868;2023-03-01T08:40:11;13.40;;;12.30;;
19179;SDS011;9722;48.754;8.868;2023-03-01T08:43:33;13.97;;;12.57;;
19179;SDS011;9722;48.754;8.868;2023-03-01T08:46:53;13.67;;;12.33;;
19179;SDS011;9722;48.754;8.868;2023-03-01T08:50:15;13.73;;;12.53;;
19179;SDS011;9722;48.754;8.868;2023-03-01T08:53:36;14.33;;;12.50;;
19179;SDS011;9722;48.754;8.868;2023-03-01T08:56:56;15.17;;;12.50;;
19179;SDS011;9722;48.754;8.868;2023-03-01T09:00:19;14.70;;;13.43;;
19179;SDS011;9722;48.754;8.868;2023-03-01T09:03:39;13.37;;;12.17;;
19179;SDS011;9722;48.754;8.868;2023-03-01T09:07:00;14.10;;;12.80;;
19179;SDS011;9722;48.754;8.868;2023-03-01T09:10:20;16.13;;;13.43;;
19179;SDS011;9722;48.754;8.868;2023-03-01T09:13:41;14.17;;;12.87;;
19179;SDS011;9722;48.754;8.868;2023-03-01T09:17:02;14.40;;;13.20;;
19179;SDS011;9722;48.754;8.868;2023-03-01T09:20:23;16.47;;;14.07;;
19179;SDS011;9722;48.754;8.868;2023-03-01T09:23:44;14.53;;;13.33;;
19179;SDS011;9722;48.754;8.868;2023-03-01T09:27:05;14.60;;;13.50;;
19179;SDS011;9722;48.754;8.868;2023-03-01T09:30:28;15.80;;;14.33;;
19179;SDS011;9722;48.754;8.868;2023-03-01T09:33:50;14.33;;;13.13;;
19179;SDS011;9722;48.754;8.868;2023-03-01T09:37:12;14.93;;;13.73;;
19179;SDS011;9722;48.754;8.868;2023-03-01T09:40:34;15.10;;;13.93;;
19179;SDS011;9722;48.754;8.868;2023-03-01T09:48:03;15.17;;;13.97;;
19179;SDS011;9722;48.754;8.868;2023-03-01T09:51:27;15.20;;;13.70;;
19179;SDS011;9722;48.754;8.868;2023-03-01T09:54:49;15.37;;;13.97;;
19179;SDS011;9722;48.754;8.868;2023-03-01T10:09:12;13.90;;;12.80;;
19179;SDS011;9722;48.754;8.868;2023-03-01T10:12:37;14.40;;;13.10;;
19179;SDS011;9722;48.754;8.868;2023-03-01T10:16:08;14.17;;;13.10;;
19179;SDS011;9722;48.754;8.868;2023-03-01T10:19:48;14.47;;;13.37;;
19179;SDS011;9722;48.754;8.868;2023-03-01T10:23:09;14.90;;;13.63;;
19179;SDS011;9722;48.754;8.868;2023-03-01T10:30:40;14.87;;;13.80;;
19179;SDS011;9722;48.754;8.868;2023-03-01T10:34:11;14.57;;;13.47;;
19179;SDS011;9722;48.754;8.868;2023-03-01T10:41:26;14.07;;;13.07;;
19179;SDS011;9722;48.754;8.868;2023-03-01T10:44:48;14.90;;;13.87;;
19179;SDS011;9722;48.754;8.868;2023-03-01T10:48:13;15.93;;;14.83;;
19179;SDS011;9722;48.754;8.868;2023-03-01T10:51:34;15.40;;;14.10;;
19179;SDS011;9722;48.754;8.868;2023-03-01T10:54:58;14.87;;;13.60;;
19179;SDS011;9722;48.754;8.868;2023-03-01T10:58:22;14.33;;;13.33;;
19179;SDS011;9722;48.754;8.868;2023-03-01T11:01:42;15.23;;;14.07;;
19179;SDS011;9722;48.754;8.868;2023-03-01T11:08:42;15.60;;;14.13;;
19179;SDS011;9722;48.754;8.868;2023-03-01T11:12:05;14.20;;;13.10;;
19179;SDS011;9722;48.754;8.868;2023-03-01T11:15:33;15.47;;;14.37;;
19179;SDS011;9722;48.754;8.868;2023-03-01T11:18:57;14.63;;;13.43;;
19179;SDS011;9722;48.754;8.868;2023-03-01T11:22:20;14.57;;;13.37;;
19179;SDS011;9722;48.754;8.868;2023-03-01T11:25:44;15.27;;;14.13;;
19179;SDS011;9722;48.754;8.868;2023-03-01T11:29:13;14.83;;;13.73;;
19179;SDS011;9722;48.754;8.868;2023-03-01T11:33:03;14.97;;;13.87;;
19179;SDS011;9722;48.754;8.868;2023-03-01T11:40:03;14.23;;;13.20;;
19179;SDS011;9722;48.754;8.868;2023-03-01T11:43:27;14.83;;;13.73;;
19179;SDS011;9722;48.754;8.868;2023-03-01T11:50:44;15.87;;;14.63;;
19179;SDS011;9722;48.754;8.868;2023-03-01T11:54:28;14.43;;;13.43;;
19179;SDS011;9722;48.754;8.868;2023-03-01T11:57:55;14.87;;;13.87;;
19179;SDS011;9722;48.754;8.868;2023-03-01T12:01:30;14.47;;;13.47;;
19179;SDS011;9722;48.754;8.868;2023-03-01T12:08:54;14.27;;;13.27;;
19179;SDS011;9722;48.754;8.868;2023-03-01T12:12:34;14.43;;;13.33;;
19179;SDS011;9722;48.754;8.868;2023-03-01T12:16:19;14.53;;;13.37;;
19179;SDS011;9722;48.754;8.868;2023-03-01T12:19:49;13.87;;;12.87;;
19179;SDS011;9722;48.754;8.868;2023-03-01T12:23:56;14.10;;;13.10;;
19179;SDS011;9722;48.754;8.868;2023-03-01T12:27:39;14.73;;;13.47;;
19179;SDS011;9722;48.754;8.868;2023-03-01T12:38:33;13.60;;;12.60;;
19179;SDS011;9722;48.754;8.868;2023-03-01T12:49:41;13.80;;;12.70;;
19179;SDS011;9722;48.754;8.868;2023-03-01T12:53:27;13.93;;;12.93;;
19179;SDS011;9722;48.754;8.868;2023-03-01T12:56:51;13.10;;;12.20;;
19179;SDS011;9722;48.754;8.868;2023-03-01T13:00:27;13.23;;;12.33;;
19179;SDS011;9722;48.754;8.868;2023-03-01T13:04:16;12.90;;;11.97;;
19179;SDS011;9722;48.754;8.868;2023-03-01T13:08:05;13.43;;;12.53;;
19179;SDS011;9722;48.754;8.868;2023-03-01T13:11:29;13.90;;;12.90;;
19179;SDS011;9722;48.754;8.868;2023-03-01T13:14:50;13.70;;;12.80;;
19179;SDS011;9722;48.754;8.868;2023-03-01T13:21:42;13.67;;;12.67;;
19179;SDS011;9722;48.754;8.868;2023-03-01T13:25:17;13.93;;;12.77;;
19179;SDS011;9722;48.754;8.868;2023-03-01T13:28:41;13.07;;;12.13;;
19179;SDS011;9722;48.754;8.868;2023-03-01T13:32:04;12.87;;;11.87;;
19179;SDS011;9722;48.754;8.868;2023-03-01T13:35:49;13.53;;;12.50;;
19179;SDS011;9722;48.754;8.868;2023-03-01T13:39:29;13.53;;;12.43;;
19179;SDS011;9722;48.754;8.868;2023-03-01T13:42:54;13.40;;;12.33;;
19179;SDS011;9722;48.754;8.868;2023-03-01T13:46:17;13.43;;;12.30;;
19179;SDS011;9722;48.754;8.868;2023-03-01T13:49:42;13.17;;;12.10;;
19179;SDS011;9722;48.754;8.868;2023-03-01T13:53:14;13.60;;;12.57;;
19179;SDS011;9722;48.754;8.868;2023-03-01T13:56:42;14.97;;;13.83;;
19179;SDS011;9722;48.754;8.868;2023-03-01T14:00:04;13.77;;;12.63;;
19179;SDS011;9722;48.754;8.868;2023-03-01T14:03:25;14.83;;;13.53;;
19179;SDS011;9722;48.754;8.868;2023-03-01T14:06:47;14.33;;;13.13;;
19179;SDS011;9722;48.754;8.868;2023-03-01T14:10:07;14.73;;;13.63;;
19179;SDS011;9722;48.754;8.868;2023-03-01T14:13:38;14.90;;;13.87;;
19179;SDS011;9722;48.754;8.868;2023-03-01T14:20:44;14.87;;;13.53;;
19179;SDS011;9722;48.754;8.868;2023-03-01T14:24:21;15.27;;;14.07;;
19179;SDS011;9722;48.754;8.868;2023-03-01T14:27:42;15.10;;;13.80;;
19179;SDS011;9722;48.754;8.868;2023-03-01T14:31:04;14.70;;;13.47;;
19179;SDS011;9722;48.754;8.868;2023-03-01T14:34:50;14.00;;;13.00;;
19179;SDS011;9722;48.754;8.868;2023-03-01T14:38:28;14.83;;;13.53;;
19179;SDS011;9722;48.754;8.868;2023-03-01T14:41:54;15.53;;;14.03;;
19179;SDS011;9722;48.754;8.868;2023-03-01T14:45:15;15.43;;;14.07;;
19179;SDS011;9722;48.754;8.868;2023-03-01T14:48:35;15.17;;;13.73;;
19179;SDS011;9722;48.754;8.868;2023-03-01T14:55:26;14.23;;;12.80;;
19179;SDS011;9722;48.754;8.868;2023-03-01T14:58:53;15.43;;;14.17;;
19179;SDS011;9722;48.754;8.868;2023-03-01T15:02:19;14.00;;;12.90;;
19179;SDS011;9722;48.754;8.868;2023-03-01T15:05:41;13.80;;;12.70;;
19179;SDS011;9722;48.754;8.868;2023-03-01T15:09:04;13.63;;;12.43;;
19179;SDS011;9722;48.754;8.868;2023-03-01T15:15:48;13.97;;;12.90;;
19179;SDS011;9722;48.754;8.868;2023-03-01T15:19:15;13.40;;;12.27;;
19179;SDS011;9722;48.754;8.868;2023-03-01T15:22:37;13.03;;;12.00;;
19179;SDS011;9722;48.754;8.868;2023-03-01T15:25:58;13.47;;;12.33;;
19179;SDS011;9722;48.754;8.868;2023-03-01T15:29:20;13.77;;;12.67;;
19179;SDS011;9722;48.754;8.868;2023-03-01T15:32:42;14.27;;;12.97;;
19179;SDS011;9722;48.754;8.868;2023-03-01T15:36:50;15.43;;;13.43;;
19179;SDS011;9722;48.754;8.868;2023-03-01T15:40:24;13.23;;;12.00;;
19179;SDS011;9722;48.754;8.868;2023-03-01T15:43:52;13.80;;;12.10;;
19179;SDS011;9722;48.754;8.868;2023-03-01T15:47:24;14.07;;;12.67;;
19179;SDS011;9722;48.754;8.868;2023-03-01T15:50:54;14.00;;;12.50;;
19179;SDS011;9722;48.754;8.868;2023-03-01T15:54:19;14.30;;;12.23;;
19179;SDS011;9722;48.754;8.868;2023-03-01T15:57:42;13.87;;;12.00;;
19179;SDS011;9722;48.754;8.868;2023-03-01T16:01:03;12.90;;;11.70;;
19179;SDS011;9722;48.754;8.868;2023-03-01T16:04:33;13.50;;;12.10;;
19179;SDS011;9722;48.754;8.868;2023-03-01T16:07:54;13.80;;;12.40;;
19179;SDS011;9722;48.754;8.868;2023-03-01T16:11:18;12.97;;;11.43;;
19179;SDS011;9722;48.754;8.868;2023-03-01T16:14:39;13.97;;;11.77;;
19179;SDS011;9722;48.754;8.868;2023-03-01T16:18:00;11.87;;;10.77;;
19179;SDS011;9722;48.754;8.868;2023-03-01T16:21:22;16.33;;;12.10;;
19179;SDS011;9722;48.754;8.868;2023-03-01T16:24:44;16.07;;;11.27;;
19179;SDS011;9722;48.754;8.868;2023-03-01T16:28:04;14.03;;;12.60;;
19179;SDS011;9722;48.754;8.868;2023-03-01T16:31:28;15.47;;;11.13;;
19179;SDS011;9722;48.754;8.868;2023-03-01T16:34:49;14.17;;;11.63;;
19179;SDS011;9722;48.754;8.868;2023-03-01T16:38:10;14.60;;;11.07;;
19179;SDS011;9722;48.754;8.868;2023-03-01T16:41:30;12.33;;;11.03;;
19179;SDS011;9722;48.754;8.868;2023-03-01T16:44:54;12.57;;;11.30;;
19179;SDS011;9722;48.754;8.868;2023-03-01T16:48:15;13.60;;;12.20;;
19179;SDS011;9722;48.754;8.868;2023-03-01T16:51:35;18.10;;;12.40;;
19179;SDS011;9722;48.754;8.868;2023-03-01T16:54:56;16.50;;;13.37;;
19179;SDS011;9722;48.754;8.868;2023-03-01T16:58:17;21.70;;;14.47;;
19179;SDS011;9722;48.754;8.868;2023-03-01T17:01:37;14.27;;;11.47;;
19179;SDS011;9722;48.754;8.868;2023-03-01T17:04:59;14.37;;;12.53;;
19179;SDS011;9722;48.754;8.868;2023-03-01T17:08:19;13.83;;;12.43;;
19179;SDS011;9722;48.754;8.868;2023-03-01T17:11:40;14.03;;;11.40;;
19179;SDS011;9722;48.754;8.868;2023-03-01T17:15:00;12.87;;;11.47;;
19179;SDS011;9722;48.754;8.868;2023-03-01T17:18:21;17.30;;;11.57;;
19179;SDS011;9722;48.754;8.868;2023-03-01T17:21:41;13.60;;;11.47;;
19179;SDS011;9722;48.754;8.868;2023-03-01T17:25:02;14.87;;;10.57;;
19179;SDS011;9722;48.754;8.868;2023-03-01T17:28:24;12.30;;;11.00;;
19179;SDS011;9722;48.754;8.868;2023-03-01T17:31:46;13.33;;;11.13;;
19179;SDS011;9722;48.754;8.868;2023-03-01T17:35:07;14.33;;;11.57;;
19179;SDS011;9722;48.754;8.868;2023-03-01T17:38:30;17.83;;;11.90;;
19179;SDS011;9722;48.754;8.868;2023-03-01T17:41:51;20.10;;;13.27;;
19179;SDS011;9722;48.754;8.868;2023-03-01T17:45:11;16.80;;;13.50;;
19179;SDS011;9722;48.754;8.868;2023-03-01T17:48:32;16.70;;;13.93;;
19179;SDS011;9722;48.754;8.868;2023-03-01T17:51:53;15.37;;;13.20;;
19179;SDS011;9722;48.754;8.868;2023-03-01T17:55:13;14.77;;;12.60;;
19179;SDS011;9722;48.754;8.868;2023-03-01T17:58:34;14.00;;;11.53;;
19179;SDS011;9722;48.754;8.868;2023-03-01T18:01:55;13.13;;;11.83;;
19179;SDS011;9722;48.754;8.868;2023-03-01T18:05:16;15.93;;;12.40;;
19179;SDS011;9722;48.754;8.868;2023-03-01T18:08:37;15.43;;;12.83;;
19179;SDS011;9722;48.754;8.868;2023-03-01T18:11:57;15.33;;;12.83;;
19179;SDS011;9722;48.754;8.868;2023-03-01T18:15:18;16.47;;;12.30;;
19179;SDS011;9722;48.754;8.868;2023-03-01T18:18:38;16.97;;;12.90;;
19179;SDS011;9722;48.754;8.868;2023-03-01T18:22:00;18.63;;;13.47;;
19179;SDS011;9722;48.754;8.868;2023-03-01T18:25:20;16.50;;;12.43;;
19179;SDS011;9722;48.754;8.868;2023-03-01T18:28:41;15.23;;;12.33;;
19179;SDS011;9722;48.754;8.868;2023-03-01T18:32:02;28.50;;;18.33;;
19179;SDS011;9722;48.754;8.868;2023-03-01T18:35:23;15.10;;;12.57;;
19179;SDS011;9722;48.754;8.868;2023-03-01T18:38:44;20.67;;;13.10;;
19179;SDS011;9722;48.754;8.868;2023-03-01T18:42:04;17.23;;;12.90;;
19179;SDS011;9722;48.754;8.868;2023-03-01T18:45:25;17.60;;;13.33;;
19179;SDS011;9722;48.754;8.868;2023-03-01T18:48:46;22.73;;;12.67;;
19179;SDS011;9722;48.754;8.868;2023-03-01T18:52:07;14.10;;;11.53;;
19179;SDS011;9722;48.754;8.868;2023-03-01T18:55:27;12.47;;;11.13;;
19179;SDS011;9722;48.754;8.868;2023-03-01T18:58:48;17.43;;;12.83;;
19179;SDS011;9722;48.754;8.868;2023-03-01T19:02:10;16.63;;;12.97;;
19179;SDS011;9722;48.754;8.868;2023-03-01T19:05:31;15.17;;;12.23;;
19179;SDS011;9722;48.754;8.868;2023-03-01T19:08:52;18.43;;;13.80;;
19179;SDS011;9722;48.754;8.868;2023-03-01T19:12:13;23.40;;;15.10;;
19179;SDS011;9722;48.754;8.868;2023-03-01T19:15:33;20.33;;;14.67;;
19179;SDS011;9722;48.754;8.868;2023-03-01T19:18:55;21.03;;;14.87;;
19179;SDS011;9722;48.754;8.868;2023-03-01T19:22:18;16.73;;;14.03;;
19179;SDS011;9722;48.754;8.868;2023-03-01T19:25:38;21.50;;;14.67;;
19179;SDS011;9722;48.754;8.868;2023-03-01T19:28:59;22.60;;;15.83;;
19179;SDS011;9722;48.754;8.868;2023-03-01T19:32:20;21.57;;;15.50;;
19179;SDS011;9722;48.754;8.868;2023-03-01T19:35:40;25.93;;;17.67;;
19179;SDS011;9722;48.754;8.868;2023-03-01T19:39:02;30.20;;;20.03;;
19179;SDS011;9722;48.754;8.868;2023-03-01T19:42:23;47.80;;;27.90;;
19179;SDS011;9722;48.754;8.868;2023-03-01T19:45:53;40.70;;;25.97;;
19179;SDS011;9722;48.754;8.868;2023-03-01T19:49:14;31.30;;;19.27;;
19179;SDS011;9722;48.754;8.868;2023-03-01T19:52:34;28.73;;;21.37;;
19179;SDS011;9722;48.754;8.868;2023-03-01T19:55:56;33.73;;;22.23;;
19179;SDS011;9722;48.754;8.868;2023-03-01T19:59:18;53.33;;;34.33;;
19179;SDS011;9722;48.754;8.868;2023-03-01T20:02:43;36.57;;;24.17;;
19179;SDS011;9722;48.754;8.868;2023-03-01T20:06:14;95.60;;;57.57;;
19179;SDS011;9722;48.754;8.868;2023-03-01T20:09:37;63.53;;;37.20;;
19179;SDS011;9722;48.754;8.868;2023-03-01T20:12:58;53.03;;;33.10;;
19179;SDS011;9722;48.754;8.868;2023-03-01T20:16:21;61.13;;;33.73;;
19179;SDS011;9722;48.754;8.868;2023-03-01T20:19:43;46.00;;;28.67;;
19179;SDS011;9722;48.754;8.868;2023-03-01T20:23:03;53.50;;;28.37;;
19179;SDS011;9722;48.754;8.868;2023-03-01T20:26:24;46.73;;;26.37;;
19179;SDS011;9722;48.754;8.868;2023-03-01T20:29:45;43.73;;;23.90;;
19179;SDS011;9722;48.754;8.868;2023-03-01T20:33:06;39.70;;;22.17;;
19179;SDS011;9722;48.754;8.868;2023-03-01T20:36:26;37.67;;;22.20;;
19179;SDS011;9722;48.754;8.868;2023-03-01T20:39:48;37.87;;;20.67;;
19179;SDS011;9722;48.754;8.868;2023-03-01T20:43:08;22.90;;;16.60;;
19179;SDS011;9722;48.754;8.868;2023-03-01T20:46:29;27.60;;;17.77;;
19179;SDS011;9722;48.754;8.868;2023-03-01T20:49:51;40.43;;;20.70;;
19179;SDS011;9722;48.754;8.868;2023-03-01T20:53:11;29.57;;;18.70;;
19179;SDS011;9722;48.754;8.868;2023-03-01T20:56:32;25.80;;;18.20;;
19179;SDS011;9722;48.754;8.868;2023-03-01T20:59:53;26.70;;;18.13;;
19179;SDS011;9722;48.754;8.868;2023-03-01T21:03:13;25.40;;;18.93;;
19179;SDS011;9722;48.754;8.868;2023-03-01T21:06:34;28.27;;;19.63;;
19179;SDS011;9722;48.754;8.868;2023-03-01T21:09:54;26.90;;;18.63;;
19179;SDS011;9722;48.754;8.868;2023-03-01T21:13:15;28.57;;;18.90;;
19179;SDS011;9722;48.754;8.868;2023-03-01T21:16:35;21.83;;;16.70;;
19179;SDS011;9722;48.754;8.868;2023-03-01T21:19:56;24.83;;;17.83;;
19179;SDS011;9722;48.754;8.868;2023-03-01T21:23:16;31.03;;;20.00;;